sensor_id;sensor_type;location;lat;lon;timestamp;pressure;altitude;pressure_sealevel;temperature;humidity
61408;BME280;47274;43.054;25.146;2023-11-19T00:02:53;95257.34;;;0.50;100.00
61408;BME280;47274;43.054;25.146;2023-11-19T00:05:44;95257.28;;;0.52;100.00
61408;BME280;47274;43.054;25.146;2023-11-19T00:08:38;95260.59;;;0.52;100.00
61408;BME280;47274;43.054;25.146;2023-11-19T00:11:21;95193.56;;;0.05;100.00
61408;BME280;47274;43.054;25.146;2023-11-19T00:14:09;95195.56;;;0.14;100.00
61408;BME280;47274;43.054;25.146;2023-11-19T00:16:41;95262.41;;;0.50;100.00
61408;BME280;47274;43.054;25.146;2023-11-19T00:19:35;95210.69;;;0.14;100.00
61408;BME280;47274;43.054;25.146;2023-11-19T00:22:50;95176.19;;;-0.14;100.00
61408;BME280;47274;43.054;25.146;2023-11-19T00:25:45;95176.09;;;-0.12;100.00
61408;BME280;47274;43.054;25.146;2023-11-19T00:28:38;95237.09;;;0.23;100.00
61408;BME280;47274;43.054;25.146;2023-11-19T00:31:30;95199.06;;;-0.03;100.00
61408;BME280;47274;43.054;25.146;2023-11-19T00:34:20;95198.28;;;-0.03;100.00
61408;BME280;47274;43.054;25.146;2023-11-19T00:43:47;95274.50;;;0.45;100.00
61408;BME280;47274;43.054;25.146;2023-11-19T00:47:01;95224.03;;;0.16;100.00
61408;BME280;47274;43.054;25.146;2023-11-19T00:52:51;95193.31;;;-0.05;100.00
61408;BME280;47274;43.054;25.146;2023-11-19T00:55:43;95281.91;;;0.48;100.00
61408;BME280;47274;43.054;25.146;2023-11-19T00:58:25;95272.59;;;0.49;100.00
61408;BME280;47274;43.054;25.146;2023-11-19T01:01:37;95246.03;;;0.29;100.00
61408;BME280;47274;43.054;25.146;2023-11-19T01:04:28;95272.69;;;0.47;100.00
61408;BME280;47274;43.054;25.146;2023-11-19T01:07:20;95262.94;;;0.41;100.00
61408;BME280;47274;43.054;25.146;2023-11-19T01:10:13;95258.97;;;0.37;100.00
61408;BME280;47274;43.054;25.146;2023-11-19T01:13:03;95258.00;;;0.39;100.00
61408;BME280;47274;43.054;25.146;2023-11-19T01:15:43;95276.91;;;0.46;100.00
61408;BME280;47274;43.054;25.146;2023-11-19T01:18:33;95257.38;;;0.36;100.00
61408;BME280;47274;43.054;25.146;2023-11-19T01:21:20;95243.78;;;0.24;100.00
61408;BME280;47274;43.054;25.146;2023-11-19T01:24:45;95202.59;;;-0.05;100.00
61408;BME280;47274;43.054;25.146;2023-11-19T01:27:42;95262.53;;;0.34;100.00
61408;BME280;47274;43.054;25.146;2023-11-19T01:30:23;95244.31;;;0.29;100.00
61408;BME280;47274;43.054;25.146;2023-11-19T01:33:16;95273.59;;;0.46;100.00
61408;BME280;47274;43.054;25.146;2023-11-19T01:36:41;95280.88;;;0.51;100.00
61408;BME280;47274;43.054;25.146;2023-11-19T01:39:46;95268.72;;;0.43;100.00
61408;BME280;47274;43.054;25.146;2023-11-19T01:42:38;95261.16;;;0.43;100.00
61408;BME280;47274;43.054;25.146;2023-11-19T01:45:39;95227.97;;;0.20;100.00
61408;BME280;47274;43.054;25.146;2023-11-19T01:48:39;95212.31;;;0.15;100.00
61408;BME280;47274;43.054;25.146;2023-11-19T01:54:26;95175.81;;;-0.08;100.00
61408;BME280;47274;43.054;25.146;2023-11-19T01:57:30;95265.91;;;0.47;100.00
61408;BME280;47274;43.054;25.146;2023-11-19T02:00:31;95267.44;;;0.50;100.00
61408;BME280;47274;43.054;25.146;2023-11-19T02:03:23;95248.00;;;0.38;100.00
61408;BME280;47274;43.054;25.146;2023-11-19T02:06:09;95211.06;;;0.08;100.00
61408;BME280;47274;43.054;25.146;2023-11-19T02:09:02;95283.84;;;0.57;100.00
61408;BME280;47274;43.054;25.146;2023-11-19T02:11:56;95264.75;;;0.53;100.00
61408;BME280;47274;43.054;25.146;2023-11-19T02:14:38;95235.56;;;0.35;100.00
61408;BME280;47274;43.054;25.146;2023-11-19T02:17:30;95239.25;;;0.43;100.00
61408;BME280;47274;43.054;25.146;2023-11-19T02:20:09;95274.94;;;0.52;100.00
61408;BME280;47274;43.054;25.146;2023-11-19T02:23:05;95255.38;;;0.41;100.00
61408;BME280;47274;43.054;25.146;2023-11-19T02:28:44;95165.09;;;-0.11;100.00
61408;BME280;47274;43.054;25.146;2023-11-19T02:31:45;95224.94;;;0.15;100.00
61408;BME280;47274;43.054;25.146;2023-11-19T02:34:49;95165.47;;;-0.17;100.00
61408;BME280;47274;43.054;25.146;2023-11-19T02:40:28;95233.28;;;0.30;100.00
61408;BME280;47274;43.054;25.146;2023-11-19T02:43:08;95206.91;;;0.07;100.00
61408;BME280;47274;43.054;25.146;2023-11-19T02:45:50;95186.81;;;-0.09;100.00
61408;BME280;47274;43.054;25.146;2023-11-19T02:48:49;95273.03;;;0.41;100.00
61408;BME280;47274;43.054;25.146;2023-11-19T02:51:34;95279.81;;;0.40;100.00
61408;BME280;47274;43.054;25.146;2023-11-19T02:54:26;95185.47;;;-0.14;100.00
61408;BME280;47274;43.054;25.146;2023-11-19T02:57:15;95265.84;;;0.35;100.00
61408;BME280;47274;43.054;25.146;2023-11-19T02:59:59;95287.03;;;0.46;100.00
61408;BME280;47274;43.054;25.146;2023-11-19T03:02:53;95279.91;;;0.39;100.00
61408;BME280;47274;43.054;25.146;2023-11-19T03:06:04;95233.66;;;0.10;100.00
61408;BME280;47274;43.054;25.146;2023-11-19T03:08:45;95240.25;;;0.12;100.00
61408;BME280;47274;43.054;25.146;2023-11-19T03:11:24;95292.88;;;0.47;100.00
61408;BME280;47274;43.054;25.146;2023-11-19T03:14:25;95283.88;;;0.43;100.00
61408;BME280;47274;43.054;25.146;2023-11-19T03:17:11;95212.16;;;0.04;100.00
61408;BME280;47274;43.054;25.146;2023-11-19T03:20:17;95246.66;;;0.18;100.00
61408;BME280;47274;43.054;25.146;2023-11-19T03:23:18;95290.81;;;0.39;100.00
61408;BME280;47274;43.054;25.146;2023-11-19T03:26:32;95288.56;;;0.35;100.00
61408;BME280;47274;43.054;25.146;2023-11-19T03:29:20;95308.03;;;0.47;100.00
61408;BME280;47274;43.054;25.146;2023-11-19T03:32:19;95304.06;;;0.43;100.00
61408;BME280;47274;43.054;25.146;2023-11-19T03:35:07;95306.59;;;0.43;100.00
61408;BME280;47274;43.054;25.146;2023-11-19T03:37:50;95306.22;;;0.35;100.00
61408;BME280;47274;43.054;25.146;2023-11-19T03:40:49;95218.97;;;-0.12;100.00
61408;BME280;47274;43.054;25.146;2023-11-19T03:43:55;95216.91;;;-0.20;100.00
61408;BME280;47274;43.054;25.146;2023-11-19T03:46:42;95335.97;;;0.44;100.00
61408;BME280;47274;43.054;25.146;2023-11-19T03:49:39;95270.06;;;0.06;100.00
61408;BME280;47274;43.054;25.146;2023-11-19T03:52:28;95243.63;;;-0.17;100.00
61408;BME280;47274;43.054;25.146;2023-11-19T03:55:45;95276.47;;;-0.03;100.00
61408;BME280;47274;43.054;25.146;2023-11-19T03:58:44;95273.38;;;-0.08;100.00
61408;BME280;47274;43.054;25.146;2023-11-19T04:01:38;95339.69;;;0.38;100.00
61408;BME280;47274;43.054;25.146;2023-11-19T04:04:21;95345.72;;;0.36;100.00
61408;BME280;47274;43.054;25.146;2023-11-19T04:06:55;95303.25;;;0.14;100.00
61408;BME280;47274;43.054;25.146;2023-11-19T04:09:57;95352.13;;;0.41;100.00
61408;BME280;47274;43.054;25.146;2023-11-19T04:12:48;95361.22;;;0.44;100.00
61408;BME280;47274;43.054;25.146;2023-11-19T04:15:58;95376.47;;;0.42;100.00
61408;BME280;47274;43.054;25.146;2023-11-19T04:19:05;95367.16;;;0.43;100.00
61408;BME280;47274;43.054;25.146;2023-11-19T04:21:53;95349.03;;;0.22;100.00
61408;BME280;47274;43.054;25.146;2023-11-19T04:24:42;95295.16;;;-0.07;100.00
61408;BME280;47274;43.054;25.146;2023-11-19T04:30:35;95311.94;;;-0.06;100.00
61408;BME280;47274;43.054;25.146;2023-11-19T04:33:19;95379.25;;;0.38;100.00
61408;BME280;47274;43.054;25.146;2023-11-19T04:36:06;95355.22;;;0.16;100.00
61408;BME280;47274;43.054;25.146;2023-11-19T04:38:49;95298.56;;;-0.22;100.00
61408;BME280;47274;43.054;25.146;2023-11-19T04:42:03;95391.13;;;0.36;100.00
61408;BME280;47274;43.054;25.146;2023-11-19T04:45:15;95390.41;;;0.34;100.00
61408;BME280;47274;43.054;25.146;2023-11-19T04:48:12;95395.72;;;0.29;100.00
61408;BME280;47274;43.054;25.146;2023-11-19T04:51:03;95360.44;;;0.13;100.00
61408;BME280;47274;43.054;25.146;2023-11-19T04:53:58;95384.88;;;0.27;100.00
61408;BME280;47274;43.054;25.146;2023-11-19T04:57:00;95317.50;;;-0.15;100.00
61408;BME280;47274;43.054;25.146;2023-11-19T04:59:40;95308.09;;;-0.28;100.00
61408;BME280;47274;43.054;25.146;2023-11-19T05:02:21;95297.00;;;-0.39;100.00
61408;BME280;47274;43.054;25.146;2023-11-19T05:05:10;95316.03;;;-0.34;100.00
61408;BME280;47274;43.054;25.146;2023-11-19T05:08:23;95357.41;;;-0.08;100.00
61408;BME280;47274;43.054;25.146;2023-11-19T05:11:10;95396.06;;;0.23;100.00
61408;BME280;47274;43.054;25.146;2023-11-19T05:13:54;95357.13;;;-0.17;100.00
61408;BME280;47274;43.054;25.146;2023-11-19T05:16:44;95368.72;;;0.01;100.00
61408;BME280;47274;43.054;25.146;2023-11-19T05:19:39;95399.38;;;0.09;100.00
61408;BME280;47274;43.054;25.146;2023-11-19T05:22:23;95383.69;;;0.04;100.00
61408;BME280;47274;43.054;25.146;2023-11-19T05:28:18;95321.72;;;-0.46;100.00
61408;BME280;47274;43.054;25.146;2023-11-19T05:31:18;95435.00;;;0.19;100.00
61408;BME280;47274;43.054;25.146;2023-11-19T05:34:04;95374.28;;;-0.24;100.00
61408;BME280;47274;43.054;25.146;2023-11-19T05:36:50;95423.94;;;0.06;100.00
61408;BME280;47274;43.054;25.146;2023-11-19T05:39:52;95413.78;;;0.07;100.00
61408;BME280;47274;43.054;25.146;2023-11-19T05:42:52;95396.63;;;-0.02;100.00
61408;BME280;47274;43.054;25.146;2023-11-19T05:45:48;95436.72;;;0.18;100.00
61408;BME280;47274;43.054;25.146;2023-11-19T05:48:29;95372.50;;;-0.22;100.00
61408;BME280;47274;43.054;25.146;2023-11-19T05:51:49;95346.34;;;-0.35;100.00
61408;BME280;47274;43.054;25.146;2023-11-19T05:54:37;95354.69;;;-0.19;100.00
61408;BME280;47274;43.054;25.146;2023-11-19T05:57:31;95410.91;;;0.13;100.00
61408;BME280;47274;43.054;25.146;2023-11-19T06:00:24;95379.94;;;-0.05;100.00
61408;BME280;47274;43.054;25.146;2023-11-19T06:03:03;95368.50;;;-0.10;100.00
61408;BME280;47274;43.054;25.146;2023-11-19T06:09:01;95355.00;;;-0.09;100.00
61408;BME280;47274;43.054;25.146;2023-11-19T06:15:08;95358.03;;;-0.18;100.00
61408;BME280;47274;43.054;25.146;2023-11-19T06:18:25;95371.41;;;-0.02;100.00
61408;BME280;47274;43.054;25.146;2023-11-19T06:21:37;95357.97;;;-0.17;100.00
61408;BME280;47274;43.054;25.146;2023-11-19T06:24:19;95346.69;;;-0.11;100.00
61408;BME280;47274;43.054;25.146;2023-11-19T06:27:18;95333.06;;;-0.23;100.00
61408;BME280;47274;43.054;25.146;2023-11-19T06:30:09;95395.69;;;0.15;100.00
61408;BME280;47274;43.054;25.146;2023-11-19T06:33:16;95378.06;;;-0.01;100.00
61408;BME280;47274;43.054;25.146;2023-11-19T06:36:26;95365.00;;;-0.08;100.00
61408;BME280;47274;43.054;25.146;2023-11-19T06:39:08;95446.34;;;0.42;100.00
61408;BME280;47274;43.054;25.146;2023-11-19T06:41:51;95395.41;;;0.05;100.00
61408;BME280;47274;43.054;25.146;2023-11-19T06:44:44;95391.84;;;-0.07;100.00
61408;BME280;47274;43.054;25.146;2023-11-19T06:51:04;95443.16;;;0.38;100.00
61408;BME280;47274;43.054;25.146;2023-11-19T06:53:58;95452.22;;;0.57;100.00
61408;BME280;47274;43.054;25.146;2023-11-19T06:56:57;95389.41;;;0.22;100.00
61408;BME280;47274;43.054;25.146;2023-11-19T06:59:42;95444.47;;;0.60;100.00
61408;BME280;47274;43.054;25.146;2023-11-19T07:02:17;95395.81;;;0.28;100.00
61408;BME280;47274;43.054;25.146;2023-11-19T07:05:27;95379.94;;;0.26;99.36
61408;BME280;47274;43.054;25.146;2023-11-19T07:08:19;95426.16;;;0.56;99.37
61408;BME280;47274;43.054;25.146;2023-11-19T07:11:24;95406.41;;;0.49;99.44
61408;BME280;47274;43.054;25.146;2023-11-19T07:14:33;95408.81;;;0.50;99.00
61408;BME280;47274;43.054;25.146;2023-11-19T07:17:34;95426.63;;;0.63;98.76
61408;BME280;47274;43.054;25.146;2023-11-19T07:20:26;95426.44;;;0.66;97.94
61408;BME280;47274;43.054;25.146;2023-11-19T07:23:49;95442.06;;;0.87;97.74
61408;BME280;47274;43.054;25.146;2023-11-19T07:26:45;95435.28;;;0.73;97.11
61408;BME280;47274;43.054;25.146;2023-11-19T07:29:36;95451.25;;;0.88;96.40
61408;BME280;47274;43.054;25.146;2023-11-19T07:32:44;95453.63;;;0.91;95.38
61408;BME280;47274;43.054;25.146;2023-11-19T07:35:37;95469.13;;;0.99;94.76
61408;BME280;47274;43.054;25.146;2023-11-19T07:38:35;95467.63;;;1.11;95.64
61408;BME280;47274;43.054;25.146;2023-11-19T07:41:21;95467.25;;;1.17;94.10
61408;BME280;47274;43.054;25.146;2023-11-19T07:44:40;95537.03;;;1.62;94.31
61408;BME280;47274;43.054;25.146;2023-11-19T07:47:35;95460.66;;;1.14;93.30
61408;BME280;47274;43.054;25.146;2023-11-19T07:50:18;95547.88;;;1.79;92.60
61408;BME280;47274;43.054;25.146;2023-11-19T07:53:04;95473.47;;;1.26;92.17
61408;BME280;47274;43.054;25.146;2023-11-19T07:56:05;95454.13;;;1.39;90.92
61408;BME280;47274;43.054;25.146;2023-11-19T07:58:48;95490.78;;;1.75;91.17
61408;BME280;47274;43.054;25.146;2023-11-19T08:01:27;95537.81;;;2.19;nan
61408;BME280;47274;43.054;25.146;2023-11-19T08:04:16;95493.59;;;1.97;89.49
61408;BME280;47274;43.054;25.146;2023-11-19T08:07:15;95532.88;;;2.44;89.41
61408;BME280;47274;43.054;25.146;2023-11-19T08:09:59;95539.31;;;2.35;88.44
61408;BME280;47274;43.054;25.146;2023-11-19T08:13:03;95550.47;;;2.33;88.09
61408;BME280;47274;43.054;25.146;2023-11-19T08:15:49;95545.41;;;2.33;89.13
61408;BME280;47274;43.054;25.146;2023-11-19T08:18:52;95558.06;;;2.33;88.75
61408;BME280;47274;43.054;25.146;2023-11-19T08:21:49;95549.63;;;2.32;89.32
61408;BME280;47274;43.054;25.146;2023-11-19T08:24:43;95561.25;;;2.49;88.89
61408;BME280;47274;43.054;25.146;2023-11-19T08:27:38;95506.25;;;1.97;88.45
61408;BME280;47274;43.054;25.146;2023-11-19T08:30:10;95478.72;;;1.93;88.73
61408;BME280;47274;43.054;25.146;2023-11-19T08:32:45;95466.25;;;2.17;88.52
61408;BME280;47274;43.054;25.146;2023-11-19T08:35:53;95476.19;;;2.32;87.17
61408;BME280;47274;43.054;25.146;2023-11-19T08:38:29;95508.00;;;2.76;85.42
61408;BME280;47274;43.054;25.146;2023-11-19T08:41:21;95542.44;;;3.06;85.47
61408;BME280;47274;43.054;25.146;2023-11-19T08:44:24;95496.06;;;3.04;84.36
61408;BME280;47274;43.054;25.146;2023-11-19T08:47:40;95492.72;;;3.03;84.20
61408;BME280;47274;43.054;25.146;2023-11-19T08:50:24;95533.50;;;3.51;83.44
61408;BME280;47274;43.054;25.146;2023-11-19T08:53:15;95519.31;;;3.49;81.78
61408;BME280;47274;43.054;25.146;2023-11-19T08:56:26;95471.97;;;2.98;80.88
61408;BME280;47274;43.054;25.146;2023-11-19T08:59:19;95497.59;;;3.19;81.59
61408;BME280;47274;43.054;25.146;2023-11-19T09:02:15;95467.34;;;3.91;79.88
61408;BME280;47274;43.054;25.146;2023-11-19T09:05:10;95491.34;;;5.51;72.59
61408;BME280;47274;43.054;25.146;2023-11-19T09:07:42;95512.78;;;6.25;71.65
61408;BME280;47274;43.054;25.146;2023-11-19T09:10:21;95496.19;;;6.63;69.92
61408;BME280;47274;43.054;25.146;2023-11-19T09:13:08;95448.25;;;6.99;65.46
61408;BME280;47274;43.054;25.146;2023-11-19T09:16:04;95504.72;;;7.97;66.04
61408;BME280;47274;43.054;25.146;2023-11-19T09:18:38;95541.16;;;8.49;62.83
61408;BME280;47274;43.054;25.146;2023-11-19T09:21:15;95547.34;;;8.06;61.04
61408;BME280;47274;43.054;25.146;2023-11-19T09:23:41;95523.06;;;8.22;63.53
61408;BME280;47274;43.054;25.146;2023-11-19T09:26:15;95432.06;;;8.00;60.36
61408;BME280;47274;43.054;25.146;2023-11-19T09:28:41;95524.06;;;8.89;60.64
61408;BME280;47274;43.054;25.146;2023-11-19T09:31:17;95472.22;;;8.67;59.46
61408;BME280;47274;43.054;25.146;2023-11-19T09:33:45;95471.00;;;8.81;57.71
61408;BME280;47274;43.054;25.146;2023-11-19T09:36:16;95446.53;;;9.16;56.59
61408;BME280;47274;43.054;25.146;2023-11-19T09:38:43;95479.72;;;9.55;58.17
61408;BME280;47274;43.054;25.146;2023-11-19T09:41:16;95489.75;;;9.76;56.57
61408;BME280;47274;43.054;25.146;2023-11-19T09:43:55;95486.69;;;9.62;55.30
61408;BME280;47274;43.054;25.146;2023-11-19T09:46:40;95486.91;;;9.41;54.41
61408;BME280;47274;43.054;25.146;2023-11-19T09:49:26;95433.13;;;9.41;55.73
61408;BME280;47274;43.054;25.146;2023-11-19T09:52:11;95462.81;;;9.71;54.42
61408;BME280;47274;43.054;25.146;2023-11-19T09:54:40;95452.09;;;9.11;55.36
61408;BME280;47274;43.054;25.146;2023-11-19T09:57:06;95466.44;;;9.69;57.93
61408;BME280;47274;43.054;25.146;2023-11-19T09:59:33;95467.28;;;10.86;53.41
61408;BME280;47274;43.054;25.146;2023-11-19T10:02:00;95411.81;;;10.67;51.32
61408;BME280;47274;43.054;25.146;2023-11-19T10:04:37;95445.03;;;11.21;52.00
61408;BME280;47274;43.054;25.146;2023-11-19T10:07:23;95460.31;;;10.25;51.30
61408;BME280;47274;43.054;25.146;2023-11-19T10:10:09;95460.59;;;10.22;51.85
61408;BME280;47274;43.054;25.146;2023-11-19T10:12:57;95455.63;;;10.20;52.24
61408;BME280;47274;43.054;25.146;2023-11-19T10:15:38;95465.78;;;10.40;50.85
61408;BME280;47274;43.054;25.146;2023-11-19T10:18:08;95463.78;;;11.39;50.01
61408;BME280;47274;43.054;25.146;2023-11-19T10:20:40;95466.75;;;11.27;49.99
61408;BME280;47274;43.054;25.146;2023-11-19T10:23:07;95467.56;;;11.61;49.76
61408;BME280;47274;43.054;25.146;2023-11-19T10:25:34;95459.34;;;11.92;48.68
61408;BME280;47274;43.054;25.146;2023-11-19T10:28:11;95422.16;;;12.53;46.87
61408;BME280;47274;43.054;25.146;2023-11-19T10:31:10;95456.06;;;13.47;43.20
61408;BME280;47274;43.054;25.146;2023-11-19T10:33:56;95477.16;;;15.36;42.38
61408;BME280;47274;43.054;25.146;2023-11-19T10:36:42;95466.34;;;16.43;38.34
61408;BME280;47274;43.054;25.146;2023-11-19T10:39:11;95444.34;;;16.75;38.13
61408;BME280;47274;43.054;25.146;2023-11-19T10:41:41;95486.31;;;15.76;40.42
61408;BME280;47274;43.054;25.146;2023-11-19T10:44:36;95447.47;;;17.13;36.22
61408;BME280;47274;43.054;25.146;2023-11-19T10:47:22;95477.88;;;17.54;35.16
61408;BME280;47274;43.054;25.146;2023-11-19T10:50:30;95402.50;;;14.51;37.44
61408;BME280;47274;43.054;25.146;2023-11-19T10:53:14;95478.47;;;13.86;38.93
61408;BME280;47274;43.054;25.146;2023-11-19T10:56:06;95498.16;;;14.57;39.13
61408;BME280;47274;43.054;25.146;2023-11-19T10:58:36;95476.84;;;13.93;39.62
61408;BME280;47274;43.054;25.146;2023-11-19T11:01:23;95498.59;;;12.77;42.13
61408;BME280;47274;43.054;25.146;2023-11-19T11:04:04;95471.72;;;13.21;41.22
61408;BME280;47274;43.054;25.146;2023-11-19T11:06:50;95493.34;;;11.78;44.07
61408;BME280;47274;43.054;25.146;2023-11-19T11:09:27;95470.44;;;10.98;46.25
61408;BME280;47274;43.054;25.146;2023-11-19T11:11:59;95486.69;;;9.62;48.70
61408;BME280;47274;43.054;25.146;2023-11-19T11:14:42;95492.63;;;11.07;47.23
61408;BME280;47274;43.054;25.146;2023-11-19T11:17:39;95471.78;;;10.03;48.64
61408;BME280;47274;43.054;25.146;2023-11-19T11:20:24;95486.63;;;8.88;51.37
61408;BME280;47274;43.054;25.146;2023-11-19T11:31:20;95465.66;;;10.14;48.42
61408;BME280;47274;43.054;25.146;2023-11-19T11:37:10;95465.19;;;11.68;44.66
61408;BME280;47274;43.054;25.146;2023-11-19T11:39:42;95487.56;;;11.15;46.71
61408;BME280;47274;43.054;25.146;2023-11-19T11:45:08;95465.97;;;9.56;50.19
61408;BME280;47274;43.054;25.146;2023-11-19T11:50:14;95469.56;;;15.34;40.07
61408;BME280;47274;43.054;25.146;2023-11-19T11:55:35;95428.28;;;16.22;35.30
61408;BME280;47274;43.054;25.146;2023-11-19T11:58:08;95463.09;;;17.55;34.58
61408;BME280;47274;43.054;25.146;2023-11-19T12:00:39;95452.06;;;17.81;32.97
61408;BME280;47274;43.054;25.146;2023-11-19T12:03:18;95453.25;;;18.26;32.54
61408;BME280;47274;43.054;25.146;2023-11-19T12:05:55;95460.06;;;17.16;33.89
61408;BME280;47274;43.054;25.146;2023-11-19T12:08:40;95446.84;;;17.39;34.47
61408;BME280;47274;43.054;25.146;2023-11-19T12:11:28;95450.09;;;17.48;33.60
61408;BME280;47274;43.054;25.146;2023-11-19T12:14:01;95431.44;;;16.17;35.45
61408;BME280;47274;43.054;25.146;2023-11-19T12:16:28;95450.28;;;16.69;36.34
61408;BME280;47274;43.054;25.146;2023-11-19T12:18:56;95453.25;;;15.19;37.53
61408;BME280;47274;43.054;25.146;2023-11-19T12:21:30;95428.91;;;12.54;41.65
61408;BME280;47274;43.054;25.146;2023-11-19T12:23:58;95458.19;;;13.11;43.21
61408;BME280;47274;43.054;25.146;2023-11-19T12:26:34;95464.81;;;13.13;41.14
61408;BME280;47274;43.054;25.146;2023-11-19T12:29:05;95410.84;;;11.97;44.74
61408;BME280;47274;43.054;25.146;2023-11-19T12:31:55;95437.81;;;11.85;44.69
61408;BME280;47274;43.054;25.146;2023-11-19T12:34:42;95442.13;;;11.42;44.77
61408;BME280;47274;43.054;25.146;2023-11-19T12:37:23;95446.56;;;11.32;45.44
61408;BME280;47274;43.054;25.146;2023-11-19T12:40:21;95440.94;;;11.28;44.96
61408;BME280;47274;43.054;25.146;2023-11-19T12:43:00;95436.09;;;10.55;44.95
61408;BME280;47274;43.054;25.146;2023-11-19T12:45:42;95433.56;;;10.10;47.54
61408;BME280;47274;43.054;25.146;2023-11-19T12:48:29;95411.22;;;10.02;47.22
61408;BME280;47274;43.054;25.146;2023-11-19T12:51:19;95420.41;;;10.23;47.03
61408;BME280;47274;43.054;25.146;2023-11-19T12:54:06;95404.13;;;10.14;48.38
61408;BME280;47274;43.054;25.146;2023-11-19T12:56:59;95407.25;;;9.90;47.68
61408;BME280;47274;43.054;25.146;2023-11-19T12:59:57;95395.59;;;9.22;47.75
61408;BME280;47274;43.054;25.146;2023-11-19T13:02:57;95383.22;;;9.45;49.95
61408;BME280;47274;43.054;25.146;2023-11-19T13:05:45;95377.38;;;9.25;49.49
61408;BME280;47274;43.054;25.146;2023-11-19T13:08:23;95352.59;;;8.51;49.83
61408;BME280;47274;43.054;25.146;2023-11-19T13:11:04;95382.94;;;9.21;49.77
61408;BME280;47274;43.054;25.146;2023-11-19T13:14:18;95384.25;;;8.88;50.41
61408;BME280;47274;43.054;25.146;2023-11-19T13:17:04;95394.28;;;8.23;52.19
61408;BME280;47274;43.054;25.146;2023-11-19T13:19:48;95391.72;;;8.23;51.88
61408;BME280;47274;43.054;25.146;2023-11-19T13:22:29;95354.47;;;7.81;52.72
61408;BME280;47274;43.054;25.146;2023-11-19T13:25:12;95360.91;;;7.76;52.88
61408;BME280;47274;43.054;25.146;2023-11-19T13:28:00;95375.84;;;8.19;52.52
61408;BME280;47274;43.054;25.146;2023-11-19T13:30:34;95366.31;;;8.12;52.64
61408;BME280;47274;43.054;25.146;2023-11-19T13:33:05;95375.31;;;7.96;53.85
61408;BME280;47274;43.054;25.146;2023-11-19T13:35:47;95387.00;;;7.89;54.34
61408;BME280;47274;43.054;25.146;2023-11-19T13:38:38;95387.94;;;7.78;54.19
61408;BME280;47274;43.054;25.146;2023-11-19T13:41:27;95365.09;;;7.27;55.27
61408;BME280;47274;43.054;25.146;2023-11-19T13:44:00;95363.59;;;7.15;55.45
61408;BME280;47274;43.054;25.146;2023-11-19T13:46:26;95356.28;;;7.00;55.69
61408;BME280;47274;43.054;25.146;2023-11-19T13:48:52;95359.75;;;6.69;56.50
61408;BME280;47274;43.054;25.146;2023-11-19T13:51:23;95365.16;;;6.75;56.43
61408;BME280;47274;43.054;25.146;2023-11-19T13:54:08;95332.31;;;6.30;57.69
61408;BME280;47274;43.054;25.146;2023-11-19T13:56:48;95355.56;;;6.37;58.04
61408;BME280;47274;43.054;25.146;2023-11-19T13:59:22;95344.34;;;6.07;58.88
61408;BME280;47274;43.054;25.146;2023-11-19T14:02:01;95388.47;;;6.08;60.33
61408;BME280;47274;43.054;25.146;2023-11-19T14:04:35;95351.00;;;5.55;60.87
61408;BME280;47274;43.054;25.146;2023-11-19T14:07:13;95357.25;;;5.51;62.34
61408;BME280;47274;43.054;25.146;2023-11-19T14:09:55;95392.91;;;5.51;62.71
61408;BME280;47274;43.054;25.146;2023-11-19T14:12:42;95412.34;;;5.41;63.56
61408;BME280;47274;43.054;25.146;2023-11-19T14:15:09;95384.59;;;5.04;64.26
61408;BME280;47274;43.054;25.146;2023-11-19T14:17:36;95387.59;;;4.98;65.13
61408;BME280;47274;43.054;25.146;2023-11-19T14:20:02;95423.09;;;5.22;64.75
61408;BME280;47274;43.054;25.146;2023-11-19T14:22:48;95414.19;;;4.94;66.17
61408;BME280;47274;43.054;25.146;2023-11-19T14:25:27;95380.06;;;4.63;66.45
61408;BME280;47274;43.054;25.146;2023-11-19T14:28:10;95422.63;;;4.72;67.41
61408;BME280;47274;43.054;25.146;2023-11-19T14:30:48;95421.56;;;4.74;67.28
61408;BME280;47274;43.054;25.146;2023-11-19T14:33:34;95433.47;;;4.85;67.49
61408;BME280;47274;43.054;25.146;2023-11-19T14:36:11;95405.94;;;4.57;67.90
61408;BME280;47274;43.054;25.146;2023-11-19T14:38:37;95394.47;;;4.51;68.31
61408;BME280;47274;43.054;25.146;2023-11-19T14:41:04;95346.09;;;4.06;69.26
61408;BME280;47274;43.054;25.146;2023-11-19T14:43:30;95428.09;;;4.55;68.64
61408;BME280;47274;43.054;25.146;2023-11-19T14:45:56;95353.56;;;3.96;69.80
61408;BME280;47274;43.054;25.146;2023-11-19T14:48:25;95415.41;;;4.19;70.19
61408;BME280;47274;43.054;25.146;2023-11-19T14:50:50;95375.94;;;3.91;70.02
61408;BME280;47274;43.054;25.146;2023-11-19T14:53:28;95435.63;;;4.21;70.85
61408;BME280;47274;43.054;25.146;2023-11-19T14:56:09;95446.91;;;4.17;72.06
61408;BME280;47274;43.054;25.146;2023-11-19T14:58:51;95405.75;;;4.00;71.42
61408;BME280;47274;43.054;25.146;2023-11-19T15:01:33;95418.72;;;4.09;71.39
61408;BME280;47274;43.054;25.146;2023-11-19T15:04:08;95432.25;;;4.20;71.89
61408;BME280;47274;43.054;25.146;2023-11-19T15:06:36;95416.13;;;3.97;71.74
61408;BME280;47274;43.054;25.146;2023-11-19T15:09:02;95404.13;;;3.75;72.03
61408;BME280;47274;43.054;25.146;2023-11-19T15:11:28;95391.56;;;3.74;71.91
61408;BME280;47274;43.054;25.146;2023-11-19T15:14:02;95400.56;;;3.78;72.79
61408;BME280;47274;43.054;25.146;2023-11-19T15:16:43;95422.78;;;3.87;72.43
61408;BME280;47274;43.054;25.146;2023-11-19T15:19:31;95425.88;;;3.79;73.24
61408;BME280;47274;43.054;25.146;2023-11-19T15:22:17;95412.66;;;3.74;72.93
61408;BME280;47274;43.054;25.146;2023-11-19T15:24:43;95396.59;;;3.63;72.96
61408;BME280;47274;43.054;25.146;2023-11-19T15:27:12;95381.28;;;3.51;72.84
61408;BME280;47274;43.054;25.146;2023-11-19T15:29:38;95393.38;;;3.48;72.83
61408;BME280;47274;43.054;25.146;2023-11-19T15:32:06;95441.09;;;3.79;73.03